createdAt,value
2023-03-05T00:01:24.138Z,101197.56
2023-03-05T00:03:54.873Z,101183.00
2023-03-05T00:06:24.284Z,101192.13
2023-03-05T00:08:53.284Z,101184.47
2023-03-05T00:11:20.985Z,101185.25
2023-03-05T00:13:47.962Z,101181.84
2023-03-05T00:16:16.326Z,101181.09
2023-03-05T00:18:43.681Z,101179.47
2023-03-05T00:21:26.290Z,101179.63
2023-03-05T00:23:53.697Z,101181.25
2023-03-05T00:26:23.125Z,101178.59
2023-03-05T00:28:51.731Z,101167.84
2023-03-05T00:31:20.646Z,101168.56
2023-03-05T00:33:52.419Z,101166.06
2023-03-05T00:36:19.648Z,101168.56
2023-03-05T00:38:46.465Z,101166.22
2023-03-05T00:41:13.145Z,101159.56
2023-03-05T00:43:39.856Z,101164.44
2023-03-05T00:46:06.558Z,101156.94
2023-03-05T00:48:33.209Z,101154.31
2023-03-05T00:51:00.133Z,101158.44
2023-03-05T00:53:26.850Z,101154.31
2023-03-05T00:55:53.509Z,101152.53
2023-03-05T00:58:20.150Z,101153.00
2023-03-05T01:00:46.783Z,101153.75
2023-03-05T01:03:13.618Z,101156.63
2023-03-05T01:05:40.308Z,101150.66
2023-03-05T01:08:07.055Z,101140.09
2023-03-05T01:10:34.063Z,101140.41
2023-03-05T01:13:00.763Z,101136.63
2023-03-05T01:15:27.615Z,101137.69
2023-03-05T01:17:54.294Z,101137.03
2023-03-05T01:20:22.845Z,101127.63
2023-03-05T01:22:49.820Z,101127.31
2023-03-05T01:25:17.543Z,101126.72
2023-03-05T01:27:44.920Z,101123.19
2023-03-05T01:30:13.945Z,101120.56
2023-03-05T01:32:40.624Z,101111.28
2023-03-05T01:35:08.456Z,101113.69
2023-03-05T01:37:35.059Z,101109.41
2023-03-05T01:40:01.797Z,101105.16
2023-03-05T01:42:28.479Z,101097.50
2023-03-05T01:45:10.535Z,101090.00
2023-03-05T01:47:37.561Z,101079.72
2023-03-05T01:50:07.038Z,101087.84
2023-03-05T01:52:36.642Z,101085.34
2023-03-05T01:55:09.835Z,101081.94
2023-03-05T01:57:42.132Z,101078.41
2023-03-05T02:00:16.678Z,101071.66
2023-03-05T02:02:49.847Z,101075.66
2023-03-05T02:05:27.125Z,101074.78
2023-03-05T02:07:59.598Z,101073.16
2023-03-05T02:10:29.626Z,101066.41
2023-03-05T02:12:58.937Z,101067.28
2023-03-05T02:15:25.605Z,101069.88
2023-03-05T02:17:52.304Z,101064.88
2023-03-05T02:20:24.784Z,101059.75
2023-03-05T02:22:51.889Z,101052.72
2023-03-05T02:25:27.402Z,101051.38
2023-03-05T02:28:03.055Z,101049.63
2023-03-05T02:30:31.196Z,101045.47
2023-03-05T02:32:58.393Z,101041.38
2023-03-05T02:35:25.091Z,101039.47
2023-03-05T02:37:51.761Z,101037.97
2023-03-05T02:40:18.583Z,101030.63
2023-03-05T02:42:45.531Z,101030.63
2023-03-05T02:45:12.601Z,101026.38
2023-03-05T02:47:39.561Z,101022.25
2023-03-05T02:50:07.546Z,101028.25
2023-03-05T02:56:21.947Z,101026.91
2023-03-05T02:58:48.701Z,101017.66
2023-03-05T03:01:15.458Z,101017.78
2023-03-05T03:03:42.168Z,101017.03
2023-03-05T03:06:08.808Z,101018.25
2023-03-05T03:08:35.458Z,101020.00
2023-03-05T03:11:07.483Z,101010.75
2023-03-05T03:13:34.248Z,101008.25
2023-03-05T03:16:18.931Z,101002.34
2023-03-05T03:18:47.418Z,101000.47
2023-03-05T03:21:22.950Z,100991.34
2023-03-05T03:23:49.661Z,100993.72
2023-03-05T03:26:17.229Z,100988.56
2023-03-05T03:28:43.943Z,100994.31
2023-03-05T03:31:11.041Z,100994.44
2023-03-05T03:33:37.707Z,100986.81
2023-03-05T03:36:05.321Z,100987.53
2023-03-05T03:38:31.973Z,100981.81
2023-03-05T03:40:58.608Z,100983.44
2023-03-05T03:43:25.414Z,100975.41
2023-03-05T03:45:52.050Z,100973.00
2023-03-05T03:48:18.716Z,100975.66
2023-03-05T03:50:45.371Z,100975.50
2023-03-05T03:53:14.628Z,100970.50
2023-03-05T03:55:42.783Z,100965.66
2023-03-05T03:58:09.825Z,100964.91
2023-03-05T04:00:36.698Z,100959.63
2023-03-05T04:03:03.733Z,100961.41
2023-03-05T04:05:30.552Z,100958.63
2023-03-05T04:07:58.438Z,100952.75
2023-03-05T04:10:25.711Z,100952.88
2023-03-05T04:12:52.509Z,100955.50
2023-03-05T04:15:19.298Z,100954.00
2023-03-05T04:17:45.948Z,100949.78
2023-03-05T04:20:13.093Z,100944.00
2023-03-05T04:22:39.776Z,100944.78
2023-03-05T04:25:08.244Z,100940.38
2023-03-05T04:27:36.648Z,100939.63
2023-03-05T04:30:05.360Z,100932.72
2023-03-05T04:32:32.056Z,100938.59
2023-03-05T04:34:58.894Z,100936.72
2023-03-05T04:37:26.223Z,100925.84
2023-03-05T04:39:53.216Z,100931.00
2023-03-05T04:42:21.330Z,100931.88
2023-03-05T04:44:49.332Z,100928.59
2023-03-05T04:47:17.173Z,100919.50
2023-03-05T04:49:44.139Z,100913.59
2023-03-05T04:52:14.757Z,100910.38
2023-03-05T04:54:41.944Z,100914.50
2023-03-05T04:57:08.663Z,100916.09
2023-03-05T04:59:37.352Z,100911.25
2023-03-05T05:02:05.386Z,100905.22
2023-03-05T05:04:33.768Z,100911.09
2023-03-05T05:07:00.578Z,100913.75
2023-03-05T05:09:27.260Z,100916.25
2023-03-05T05:11:54.257Z,100907.13
2023-03-05T05:14:20.981Z,100898.88
2023-03-05T05:16:47.673Z,100900.75
2023-03-05T05:19:14.313Z,100901.78
2023-03-05T05:21:41.027Z,100895.63
2023-03-05T05:24:07.846Z,100904.28
2023-03-05T05:26:34.507Z,100902.66
2023-03-05T05:29:01.200Z,100895.91
2023-03-05T05:31:27.885Z,100899.91
2023-03-05T05:33:54.537Z,100892.41
2023-03-05T05:36:22.300Z,100893.41
2023-03-05T05:38:49.412Z,100891.63
2023-03-05T05:41:18.321Z,100890.00
2023-03-05T05:43:45.291Z,100887.38
2023-03-05T05:46:15.464Z,100883.13
2023-03-05T05:48:42.261Z,100889.13
2023-03-05T05:51:14.848Z,100887.25
2023-03-05T05:53:42.954Z,100883.88
2023-03-05T05:56:11.806Z,100888.88
2023-03-05T05:58:40.249Z,100882.97
2023-03-05T06:01:18.907Z,100883.13
2023-03-05T06:03:46.238Z,100884.00
2023-03-05T06:06:15.763Z,100884.00
2023-03-05T06:08:42.452Z,100885.75
2023-03-05T06:11:09.454Z,100890.00
2023-03-05T06:13:36.506Z,100890.00
2023-03-05T06:16:06.528Z,100882.50
2023-03-05T06:18:34.182Z,100878.88
2023-03-05T06:21:04.646Z,100887.38
2023-03-05T06:23:31.296Z,100890.63
2023-03-05T06:26:03.244Z,100894.13
2023-03-05T06:28:30.609Z,100885.91
2023-03-05T06:31:02.659Z,100891.78
2023-03-05T06:33:29.309Z,100890.16
2023-03-05T06:35:56.049Z,100885.16
2023-03-05T06:38:22.902Z,100891.63
2023-03-05T06:40:49.627Z,100887.66
2023-03-05T06:43:16.250Z,100891.78
2023-03-05T06:45:42.905Z,100887.38
2023-03-05T06:48:09.573Z,100885.16
2023-03-05T06:50:37.055Z,100888.50
2023-03-05T06:53:03.885Z,100881.00
2023-03-05T06:55:30.545Z,100873.41
2023-03-05T06:57:57.155Z,100875.13
2023-03-05T07:00:24.392Z,100882.03
2023-03-05T07:02:51.108Z,100877.16
2023-03-05T07:05:17.900Z,100876.53
2023-03-05T07:07:44.563Z,100875.78
2023-03-05T07:10:11.495Z,100878.56
2023-03-05T07:12:38.720Z,100873.69
2023-03-05T07:15:05.806Z,100876.19
2023-03-05T07:17:32.452Z,100882.97
2023-03-05T07:19:59.125Z,100873.09
2023-03-05T07:22:25.781Z,100878.09
2023-03-05T07:24:52.423Z,100881.63
2023-03-05T07:27:19.045Z,100879.38
2023-03-05T07:29:46.033Z,100888.00
2023-03-05T07:32:12.718Z,100886.38
2023-03-05T07:34:39.359Z,100880.75
2023-03-05T07:37:05.983Z,100868.97
2023-03-05T07:39:32.733Z,100872.63
2023-03-05T07:41:59.486Z,100867.16
2023-03-05T07:44:25.957Z,100867.41
2023-03-05T07:46:52.488Z,100869.44
2023-03-05T07:49:18.997Z,100864.81
2023-03-05T07:51:45.449Z,100857.31
2023-03-05T07:54:11.870Z,100865.06
2023-03-05T07:56:38.333Z,100870.19
2023-03-05T07:59:07.514Z,100865.06
2023-03-05T08:01:35.022Z,100867.97
2023-03-05T08:04:02.517Z,100859.31
2023-03-05T08:06:29.162Z,100874.25
2023-03-05T08:08:58.078Z,100869.47
2023-03-05T08:11:24.792Z,100860.34
2023-03-05T08:13:51.312Z,100853.34
2023-03-05T08:16:20.872Z,100860.50
2023-03-05T08:18:47.837Z,100851.59
2023-03-05T08:21:22.962Z,100856.13
2023-03-05T08:23:49.773Z,100856.38
2023-03-05T08:26:19.790Z,100846.88
2023-03-05T08:28:46.327Z,100845.59
2023-03-05T08:31:13.924Z,100842.13
2023-03-05T08:33:40.898Z,100847.78
2023-03-05T08:36:08.661Z,100850.53
2023-03-05T08:38:36.583Z,100843.88
2023-03-05T08:41:03.624Z,100850.38
2023-03-05T08:43:31.066Z,100838.63
2023-03-05T08:45:59.338Z,100834.63
2023-03-05T08:48:25.791Z,100829.72
2023-03-05T08:50:53.142Z,100837.22
2023-03-05T08:53:19.607Z,100839.13
2023-03-05T08:55:55.020Z,100830.06
2023-03-05T08:58:23.876Z,100834.88
2023-03-05T09:00:50.927Z,100825.44
2023-03-05T09:03:18.416Z,100821.81
2023-03-05T09:05:45.297Z,100826.19
2023-03-05T09:08:12.052Z,100818.03
2023-03-05T09:10:38.594Z,100826.44
2023-03-05T09:13:05.080Z,100822.94
2023-03-05T09:15:32.001Z,100819.78
2023-03-05T09:17:59.520Z,100811.00
2023-03-05T09:20:26.062Z,100811.63
2023-03-05T09:22:52.534Z,100812.84
2023-03-05T09:25:19.995Z,100807.19
2023-03-05T09:27:47.369Z,100803.06
2023-03-05T09:30:14.401Z,100789.00
2023-03-05T09:32:40.889Z,100791.75
2023-03-05T09:35:07.920Z,100785.84
2023-03-05T09:37:34.414Z,100765.31
2023-03-05T09:40:01.005Z,100783.34
2023-03-05T09:42:54.218Z,100786.00
2023-03-05T09:45:28.793Z,100789.63
2023-03-05T09:48:20.631Z,100790.09
2023-03-05T09:50:52.359Z,100780.19
2023-03-05T09:53:37.832Z,100783.16
2023-03-05T09:56:11.606Z,100773.72
2023-03-05T09:58:56.062Z,100779.72
2023-03-05T10:01:36.020Z,100775.19
2023-03-05T10:04:09.045Z,100783.06
2023-03-05T10:06:45.284Z,100770.75
2023-03-05T10:09:11.892Z,100770.75
2023-03-05T10:12:00.942Z,100771.25
2023-03-05T10:14:40.962Z,100755.13
2023-03-05T10:17:22.609Z,100765.44
2023-03-05T10:20:15.878Z,100752.25
2023-03-05T10:23:04.133Z,100747.34
2023-03-05T10:25:48.589Z,100754.25
2023-03-05T10:28:24.809Z,100744.31
2023-03-05T10:31:18.129Z,100740.16
2023-03-05T10:34:12.068Z,100732.00
2023-03-05T10:36:58.972Z,100723.19
2023-03-05T10:39:54.798Z,100713.41
2023-03-05T10:42:35.111Z,100690.56
2023-03-05T10:45:15.311Z,100684.34
2023-03-05T10:47:49.518Z,100703.13
2023-03-05T10:50:20.338Z,100721.56
2023-03-05T10:52:52.501Z,100753.34
2023-03-05T10:55:21.971Z,100750.63
2023-03-05T10:57:48.619Z,100737.69
2023-03-05T11:00:25.646Z,100735.41
2023-03-05T11:03:03.032Z,100730.41
2023-03-05T11:05:39.430Z,100722.50
2023-03-05T11:08:28.153Z,100725.03
2023-03-05T11:11:16.733Z,100717.56
2023-03-05T11:13:52.853Z,100719.56
2023-03-05T11:16:24.251Z,100703.59
2023-03-05T11:19:11.638Z,100697.31
2023-03-05T11:21:38.367Z,100695.97
2023-03-05T11:24:16.920Z,100695.31
2023-03-05T11:26:49.899Z,100700.31
2023-03-05T11:29:22.531Z,100686.97
2023-03-05T11:31:49.695Z,100693.00
2023-03-05T11:34:19.330Z,100672.75
2023-03-05T11:36:53.063Z,100684.47
2023-03-05T11:39:22.425Z,100683.91
2023-03-05T11:41:51.993Z,100679.03
2023-03-05T11:44:22.936Z,100659.91
2023-03-05T11:47:13.597Z,100665.25
2023-03-05T11:49:45.381Z,100672.88
2023-03-05T11:52:28.136Z,100674.53
2023-03-05T11:55:16.081Z,100674.53
2023-03-05T11:58:06.709Z,100680.03
2023-03-05T12:00:37.065Z,100668.22
2023-03-05T12:03:13.135Z,100669.66
2023-03-05T12:05:44.582Z,100650.94
2023-03-05T12:08:25.767Z,100668.00
2023-03-05T12:10:52.585Z,100656.63
2023-03-05T12:13:38.848Z,100661.22
2023-03-05T12:16:26.209Z,100655.22
2023-03-05T12:19:23.171Z,100644.28
2023-03-05T12:21:52.147Z,100636.88
2023-03-05T12:24:35.287Z,100638.06
2023-03-05T12:27:05.797Z,100628.88
2023-03-05T12:29:50.377Z,100612.03
2023-03-05T12:32:23.274Z,100628.34
2023-03-05T12:34:58.059Z,100615.66
2023-03-05T12:37:24.878Z,100622.00
2023-03-05T12:40:23.959Z,100613.78
2023-03-05T12:42:54.716Z,100598.56
2023-03-05T12:45:21.326Z,100602.84
2023-03-05T12:48:13.646Z,100603.28
2023-03-05T12:50:40.343Z,100600.78
2023-03-05T12:53:07.025Z,100595.09
2023-03-05T12:55:36.030Z,100590.28
2023-03-05T12:58:25.641Z,100590.50
2023-03-05T13:00:57.991Z,100582.28
2023-03-05T13:03:30.791Z,100584.59
2023-03-05T13:06:06.509Z,100578.38
2023-03-05T13:08:37.741Z,100572.81
2023-03-05T13:11:09.304Z,100577.97
2023-03-05T13:13:42.141Z,100584.53
2023-03-05T13:16:28.930Z,100581.25
2023-03-05T13:18:59.136Z,100582.34
2023-03-05T13:21:28.978Z,100576.44
2023-03-05T13:23:59.614Z,100585.72
2023-03-05T13:26:36.828Z,100578.19
2023-03-05T13:29:03.391Z,100572.41
2023-03-05T13:31:30.511Z,100580.38
2023-03-05T13:34:07.692Z,100580.47
2023-03-05T13:36:34.561Z,100580.81
2023-03-05T13:39:03.953Z,100566.28
2023-03-05T13:41:30.601Z,100565.41
2023-03-05T13:44:01.234Z,100570.25
2023-03-05T13:46:31.381Z,100571.00
2023-03-05T13:49:17.977Z,100565.56
2023-03-05T13:51:47.718Z,100561.59
2023-03-05T13:54:17.044Z,100560.84
2023-03-05T13:57:06.005Z,100556.91
2023-03-05T13:59:38.742Z,100552.75
2023-03-05T14:02:17.175Z,100554.19
2023-03-05T14:04:46.259Z,100551.13
2023-03-05T14:07:31.805Z,100541.63
2023-03-05T14:09:59.741Z,100541.28
2023-03-05T14:12:37.040Z,100537.16
2023-03-05T14:15:22.413Z,100541.53
2023-03-05T14:17:49.482Z,100535.72
2023-03-05T14:20:28.161Z,100536.94
2023-03-05T14:22:58.094Z,100531.69
2023-03-05T14:25:24.671Z,100530.84
2023-03-05T14:27:51.433Z,100528.19
2023-03-05T14:30:21.569Z,100511.59
2023-03-05T14:32:50.732Z,100511.81
2023-03-05T14:35:20.701Z,100512.81
2023-03-05T14:37:49.114Z,100499.59
2023-03-05T14:40:15.843Z,100497.31
2023-03-05T14:42:53.619Z,100492.28
2023-03-05T14:45:22.834Z,100492.91
2023-03-05T14:47:50.741Z,100479.28
2023-03-05T14:50:43.515Z,100480.59
2023-03-05T14:53:17.034Z,100483.00
2023-03-05T14:55:48.724Z,100474.72
2023-03-05T14:58:20.151Z,100488.88
2023-03-05T15:00:49.478Z,100489.66
2023-03-05T15:03:19.617Z,100487.03
2023-03-05T15:05:48.454Z,100465.97
2023-03-05T15:08:20.292Z,100454.19
2023-03-05T15:10:47.122Z,100457.88
2023-03-05T15:13:15.340Z,100450.59
2023-03-05T15:15:43.209Z,100455.81
2023-03-05T15:18:12.998Z,100447.41
2023-03-05T15:20:40.609Z,100446.94
2023-03-05T15:23:07.619Z,100451.22
2023-03-05T15:25:34.488Z,100439.66
2023-03-05T15:28:01.648Z,100442.78
2023-03-05T15:30:34.177Z,100436.69
2023-03-05T15:33:03.285Z,100429.41
2023-03-05T15:35:30.112Z,100429.19
2023-03-05T15:37:58.052Z,100427.22
2023-03-05T15:40:27.626Z,100437.81
2023-03-05T15:42:58.835Z,100435.97
2023-03-05T15:45:26.414Z,100417.63
2023-03-05T15:47:53.687Z,100428.88
2023-03-05T15:50:21.314Z,100428.78
2023-03-05T15:52:49.056Z,100423.63
2023-03-05T15:55:19.054Z,100416.97
2023-03-05T15:57:48.593Z,100410.97
2023-03-05T16:00:18.936Z,100409.00
2023-03-05T16:02:45.595Z,100401.38
2023-03-05T16:05:12.266Z,100396.06
2023-03-05T16:07:42.200Z,100395.38
2023-03-05T16:10:17.317Z,100400.28
2023-03-05T16:12:46.783Z,100391.03
2023-03-05T16:15:18.566Z,100389.28
2023-03-05T16:17:48.688Z,100387.63
2023-03-05T16:20:15.974Z,100392.75
2023-03-05T16:22:42.624Z,100382.72
2023-03-05T16:25:09.737Z,100388.59
2023-03-05T16:27:36.503Z,100380.41
2023-03-05T16:30:04.803Z,100387.41
2023-03-05T16:32:31.654Z,100382.94
2023-03-05T16:34:58.572Z,100384.69
2023-03-05T16:37:25.847Z,100387.41
2023-03-05T16:39:52.548Z,100379.13
2023-03-05T16:42:19.327Z,100378.09
2023-03-05T16:44:47.303Z,100379.75
2023-03-05T16:47:14.055Z,100368.06
2023-03-05T16:49:40.853Z,100370.38
2023-03-05T16:52:19.864Z,100367.41
2023-03-05T16:54:48.189Z,100368.69
2023-03-05T16:57:15.334Z,100360.19
2023-03-05T16:59:43.463Z,100363.19
2023-03-05T17:02:12.624Z,100354.13
2023-03-05T17:04:39.304Z,100361.41
2023-03-05T17:07:06.048Z,100358.69
2023-03-05T17:09:33.369Z,100348.03
2023-03-05T17:12:00.064Z,100352.38
2023-03-05T17:14:27.444Z,100343.66
2023-03-05T17:16:54.139Z,100341.03
2023-03-05T17:19:20.919Z,100351.81
2023-03-05T17:21:50.634Z,100348.44
2023-03-05T17:24:17.425Z,100349.31
2023-03-05T17:26:44.193Z,100337.88
2023-03-05T17:29:10.886Z,100337.59
2023-03-05T17:31:37.706Z,100332.22
2023-03-05T17:34:04.583Z,100330.28
2023-03-05T17:36:32.108Z,100325.72
2023-03-05T17:38:59.320Z,100322.88
2023-03-05T17:41:26.175Z,100330.09
2023-03-05T17:43:52.876Z,100334.13
2023-03-05T17:46:19.493Z,100328.13
2023-03-05T17:48:46.200Z,100333.38
2023-03-05T17:51:13.912Z,100330.97
2023-03-05T17:53:40.943Z,100328.44
2023-03-05T17:56:13.155Z,100327.72
2023-03-05T17:58:40.402Z,100325.28
2023-03-05T18:01:07.955Z,100334.47
2023-03-05T18:03:35.489Z,100331.81
2023-03-05T18:06:02.413Z,100321.59
2023-03-05T18:08:29.118Z,100312.22
2023-03-05T18:10:55.787Z,100318.22
2023-03-05T18:13:22.553Z,100310.69
2023-03-05T18:15:49.213Z,100306.34
2023-03-05T18:18:17.797Z,100304.38
2023-03-05T18:20:45.510Z,100300.22
2023-03-05T18:23:12.479Z,100302.72
2023-03-05T18:25:39.188Z,100301.97
2023-03-05T18:28:08.773Z,100293.78
2023-03-05T18:30:36.723Z,100290.50
2023-03-05T18:33:03.572Z,100283.75
2023-03-05T18:35:31.049Z,100287.13
2023-03-05T18:37:58.155Z,100280.03
2023-03-05T18:40:27.253Z,100258.34
2023-03-05T18:42:54.434Z,100274.28
2023-03-05T18:45:22.626Z,100278.88
2023-03-05T18:47:53.888Z,100277.78
2023-03-05T18:50:22.376Z,100277.78
2023-03-05T18:52:50.213Z,100269.28
2023-03-05T18:55:19.866Z,100271.59
2023-03-05T18:57:47.201Z,100276.41
2023-03-05T19:00:15.930Z,100263.53
2023-03-05T19:02:42.611Z,100263.22
2023-03-05T19:05:10.140Z,100253.63
2023-03-05T19:07:37.933Z,100256.13
2023-03-05T19:10:09.807Z,100257.53
2023-03-05T19:12:45.242Z,100252.13
2023-03-05T19:15:13.119Z,100250.38
2023-03-05T19:17:40.367Z,100239.34
2023-03-05T19:20:08.394Z,100250.81
2023-03-05T19:22:35.085Z,100240.47
2023-03-05T19:25:02.157Z,100242.00
2023-03-05T19:27:29.108Z,100223.22
2023-03-05T19:29:55.861Z,100224.78
2023-03-05T19:32:23.529Z,100221.50
2023-03-05T19:34:50.732Z,100222.38
2023-03-05T19:37:18.186Z,100218.34
2023-03-05T19:39:45.017Z,100209.50
2023-03-05T19:42:11.807Z,100200.56
2023-03-05T19:44:38.947Z,100194.81
2023-03-05T19:47:06.364Z,100194.13
2023-03-05T19:49:33.388Z,100190.88
2023-03-05T19:52:00.033Z,100180.28
2023-03-05T19:54:27.227Z,100183.03
2023-03-05T19:56:55.666Z,100182.91
2023-03-05T19:59:23.032Z,100179.97
2023-03-05T20:01:49.844Z,100177.59
2023-03-05T20:04:22.084Z,100173.13
2023-03-05T20:06:48.958Z,100176.28
2023-03-05T20:09:16.311Z,100165.94
2023-03-05T20:11:43.721Z,100160.28
2023-03-05T20:14:13.095Z,100167.66
2023-03-05T20:16:40.836Z,100160.81
2023-03-05T20:19:10.687Z,100152.44
2023-03-05T20:21:39.524Z,100156.78
2023-03-05T20:24:10.220Z,100148.53
2023-03-05T20:26:38.593Z,100145.47
2023-03-05T20:29:05.384Z,100141.53
2023-03-05T20:31:37.011Z,100142.31
2023-03-05T20:34:05.856Z,100134.97
2023-03-05T20:36:34.512Z,100129.22
2023-03-05T20:39:03.214Z,100137.06
2023-03-05T20:41:31.320Z,100131.25
2023-03-05T20:43:58.124Z,100131.94
2023-03-05T20:46:30.654Z,100121.78
2023-03-05T20:49:01.708Z,100121.47
2023-03-05T20:51:31.245Z,100117.13
2023-03-05T20:54:03.154Z,100110.47
2023-03-05T20:56:32.366Z,100110.38
2023-03-05T20:59:01.079Z,100112.66
2023-03-05T21:01:28.066Z,100108.63
2023-03-05T21:03:56.932Z,100104.28
2023-03-05T21:06:24.545Z,100102.88
2023-03-05T21:08:51.450Z,100106.22
2023-03-05T21:11:19.019Z,100087.81
2023-03-05T21:13:46.504Z,100086.19
2023-03-05T21:16:25.068Z,100076.16
2023-03-05T21:18:53.047Z,100082.91
2023-03-05T21:21:20.130Z,100076.34
2023-03-05T21:23:47.450Z,100076.34
2023-03-05T21:26:14.670Z,100074.72
2023-03-05T21:28:42.145Z,100072.78
2023-03-05T21:31:14.607Z,100068.84
2023-03-05T21:33:41.955Z,100069.81
2023-03-05T21:36:08.896Z,100069.69
2023-03-05T21:38:35.704Z,100068.94
2023-03-05T21:41:03.614Z,100068.09
2023-03-05T21:43:31.250Z,100069.31
2023-03-05T21:46:00.228Z,100068.22
2023-03-05T21:48:30.571Z,100070.06
2023-03-05T21:50:58.244Z,100063.97
2023-03-05T21:53:26.007Z,100062.09
2023-03-05T21:56:10.685Z,100066.50
2023-03-05T21:58:37.446Z,100060.50
2023-03-05T22:01:04.498Z,100058.19
2023-03-05T22:03:31.264Z,100054.28
2023-03-05T22:05:58.041Z,100040.53
2023-03-05T22:08:24.888Z,100051.84
2023-03-05T22:10:51.995Z,100056.09
2023-03-05T22:13:20.020Z,100047.63
2023-03-05T22:15:52.271Z,100046.16
2023-03-05T22:18:24.624Z,100048.28
2023-03-05T22:20:52.515Z,100047.50
2023-03-05T22:23:22.216Z,100049.03
2023-03-05T22:26:07.535Z,100044.38
2023-03-05T22:28:35.072Z,100045.47
2023-03-05T22:31:01.928Z,100041.13
2023-03-05T22:33:28.990Z,100039.16
2023-03-05T22:35:55.683Z,100034.47
2023-03-05T22:38:22.591Z,100040.06
2023-03-05T22:40:49.930Z,100038.00
2023-03-05T22:43:18.042Z,100041.03
2023-03-05T22:45:45.025Z,100038.34
2023-03-05T22:48:11.789Z,100047.38
2023-03-05T22:50:39.944Z,100040.41
2023-03-05T22:53:07.229Z,100039.97
2023-03-05T22:55:33.890Z,100037.94
2023-03-05T22:58:00.526Z,100035.09
2023-03-05T23:00:27.188Z,100040.00
2023-03-05T23:02:54.000Z,100033.91
2023-03-05T23:05:21.176Z,100032.16
2023-03-05T23:07:47.986Z,100033.69
2023-03-05T23:10:18.094Z,100025.09
2023-03-05T23:12:49.846Z,100035.00
2023-03-05T23:15:21.936Z,100040.66
2023-03-05T23:17:48.593Z,100039.81
2023-03-05T23:20:16.908Z,100040.53
2023-03-05T23:22:44.929Z,100040.44
2023-03-05T23:25:13.076Z,100044.38
2023-03-05T23:27:40.469Z,100043.25
2023-03-05T23:30:19.828Z,100046.41
2023-03-05T23:32:54.642Z,100042.81
2023-03-05T23:35:24.977Z,100045.31
2023-03-05T23:37:53.376Z,100045.97
2023-03-05T23:40:29.540Z,100041.28
2023-03-05T23:42:56.589Z,100047.94
2023-03-05T23:45:24.872Z,100050.44
2023-03-05T23:47:52.898Z,100041.19
2023-03-05T23:50:21.165Z,100048.06
2023-03-05T23:52:48.542Z,100044.56
2023-03-05T23:55:21.992Z,100045.44
2023-03-05T23:57:49.359Z,100047.16
